Time;durP1;ratioP1;P1;durP2;ratioP2;P2;SDS_P1;SDS_P2;PMS_P1;PMS_P2;Temp;Humidity;BMP_temperature;BMP_pressure;BME280_temperature;BME280_humidity;BME280_pressure;Samples;Min_cycle;Max_cycle;Signal;HPM_P1;HPM_P2
2021/01/28 00:01:29;;;;;;;1.50;1.20;;;2.70;98.00;;;;;;5050187;28;20481;-65
2021/01/28 00:03:56;;;;;;;1.87;1.63;;;2.70;98.00;;;;;;5047923;28;20500;-66
2021/01/28 00:06:24;;;;;;;1.93;1.23;;;2.70;98.00;;;;;;5050596;28;20568;-66
2021/01/28 00:08:50;;;;;;;1.63;1.30;;;2.70;98.00;;;;;;5050622;28;20515;-65
2021/01/28 00:11:17;;;;;;;1.10;1.00;;;2.70;98.00;;;;;;5052585;28;20738;-65
2021/01/28 00:13:44;;;;;;;1.33;1.30;;;2.70;98.00;;;;;;5051845;28;20701;-66
2021/01/28 00:16:10;;;;;;;1.70;1.27;;;2.80;98.00;;;;;;5053782;28;20465;-65
2021/01/28 00:18:38;;;;;;;1.20;1.13;;;2.60;98.00;;;;;;5051859;28;20810;-64
2021/01/28 00:21:05;;;;;;;1.10;1.00;;;2.50;98.00;;;;;;5053610;28;21014;-65
2021/01/28 00:23:32;;;;;;;1.40;1.23;;;2.50;98.00;;;;;;5051714;28;20464;-66
2021/01/28 00:25:59;;;;;;;1.90;1.80;;;2.50;98.00;;;;;;5052058;28;20492;-64
2021/01/28 00:28:26;;;;;;;1.57;1.30;;;2.50;98.00;;;;;;5051570;28;20779;-65
2021/01/28 00:30:54;;;;;;;1.73;1.63;;;2.60;98.00;;;;;;5052151;28;20457;-65
2021/01/28 00:33:23;;;;;;;1.10;1.00;;;2.50;98.00;;;;;;5051682;28;20872;-65
2021/01/28 00:35:51;;;;;;;6.30;3.07;;;2.50;98.00;;;;;;5053610;28;20476;-65
2021/01/28 00:38:20;;;;;;;1.57;1.40;;;2.50;98.00;;;;;;5051568;28;20867;-64
2021/01/28 00:40:48;;;;;;;1.63;1.43;;;2.50;98.00;;;;;;5053296;28;20857;-65
2021/01/28 00:43:15;;;;;;;1.63;1.43;;;2.40;98.00;;;;;;5051030;28;20547;-65
2021/01/28 00:45:42;;;;;;;1.20;1.17;;;2.40;98.00;;;;;;5053357;28;20503;-64
2021/01/28 00:48:09;;;;;;;2.27;2.07;;;2.40;98.00;;;;;;5051193;28;20983;-64
2021/01/28 00:50:37;;;;;;;2.20;2.03;;;2.40;98.00;;;;;;5053059;28;20458;-67
2021/01/28 00:53:04;;;;;;;2.00;1.43;;;2.50;98.00;;;;;;5051314;28;20464;-65
2021/01/28 00:55:31;;;;;;;1.20;1.10;;;2.60;98.00;;;;;;5052983;28;20496;-65
2021/01/28 00:58:01;;;;;;;1.53;1.53;;;2.60;98.00;;;;;;5050840;28;20489;-65
2021/01/28 01:00:30;;;;;;;7.00;1.37;;;2.60;98.00;;;;;;5035067;28;20454;-67
2021/01/28 01:02:58;;;;;;;1.10;1.00;;;2.50;98.00;;;;;;5050751;28;20485;-66
2021/01/28 01:05:26;;;;;;;1.70;1.63;;;2.60;98.00;;;;;;5052914;28;20501;-66
2021/01/28 01:07:55;;;;;;;1.83;1.73;;;2.50;98.00;;;;;;5050693;28;20450;-65
2021/01/28 01:10:36;;;;;;;1.20;1.10;;;2.40;98.00;;;;;;5052829;28;20454;-64
2021/01/28 01:13:04;;;;;;;2.30;1.13;;;2.40;98.00;;;;;;5050500;28;20453;-64
2021/01/28 01:15:31;;;;;;;1.83;1.77;;;2.50;98.00;;;;;;5052701;28;20453;-65
2021/01/28 01:17:57;;;;;;;11.67;1.50;;;2.60;98.00;;;;;;5049814;28;20508;-64
2021/01/28 01:20:24;;;;;;;1.63;1.30;;;2.70;98.00;;;;;;5052601;28;20463;-68
2021/01/28 01:22:51;;;;;;;1.77;1.50;;;2.60;98.00;;;;;;5050451;28;20571;-66
2021/01/28 01:25:18;;;;;;;1.40;1.30;;;2.50;98.00;;;;;;5052495;28;20462;-65
2021/01/28 01:27:46;;;;;;;1.10;1.10;;;2.60;98.00;;;;;;5050141;28;20456;-65
2021/01/28 01:30:16;;;;;;;1.20;1.20;;;2.70;98.00;;;;;;5052321;28;20526;-66
2021/01/28 01:32:44;;;;;;;1.10;1.00;;;2.50;98.00;;;;;;5050278;28;20446;-65
2021/01/28 01:35:15;;;;;;;1.20;1.10;;;2.50;98.00;;;;;;5052183;28;20666;-66
2021/01/28 01:37:42;;;;;;;1.67;1.37;;;2.50;98.00;;;;;;5050054;28;20464;-64
2021/01/28 01:40:14;;;;;;;1.10;1.00;;;2.50;98.00;;;;;;5052138;28;20476;-66
2021/01/28 01:42:42;;;;;;;3.43;2.30;;;2.50;98.00;;;;;;5049937;28;20838;-65
2021/01/28 01:45:10;;;;;;;1.30;1.20;;;2.60;98.00;;;;;;5052090;28;20519;-66
2021/01/28 01:47:45;;;;;;;1.10;1.00;;;2.70;98.00;;;;;;5049703;28;20462;-65
2021/01/28 01:50:29;;;;;;;1.37;1.10;;;2.70;98.00;;;;;;5052017;28;20962;-65
2021/01/28 01:52:57;;;;;;;2.63;2.37;;;2.70;98.00;;;;;;5049895;28;20461;-64
2021/01/28 01:55:24;;;;;;;1.50;1.47;;;2.80;98.00;;;;;;5051927;28;20563;-65
2021/01/28 01:57:51;;;;;;;1.10;0.90;;;2.70;98.00;;;;;;5050110;28;20862;-65
2021/01/28 02:00:21;;;;;;;1.57;1.30;;;2.70;98.00;;;;;;5050576;28;20457;-64
2021/01/28 02:02:54;;;;;;;1.30;1.30;;;2.80;98.00;;;;;;5049807;28;20528;-65
2021/01/28 02:05:25;;;;;;;2.00;1.77;;;2.70;98.00;;;;;;5051743;28;20999;-64
2021/01/28 02:07:51;;;;;;;1.10;1.00;;;2.80;98.00;;;;;;5049592;28;20461;-65
2021/01/28 02:10:19;;;;;;;1.10;1.00;;;2.70;98.00;;;;;;5051644;28;20520;-65
2021/01/28 02:12:46;;;;;;;1.10;1.00;;;2.50;98.00;;;;;;5050478;28;20516;-64
2021/01/28 02:15:14;;;;;;;1.90;1.80;;;2.50;98.00;;;;;;5051758;28;20955;-65
2021/01/28 02:17:43;;;;;;;1.70;1.60;;;2.30;98.00;;;;;;5049672;28;20469;-66
2021/01/28 02:20:41;;;;;;;1.10;1.00;;;2.20;98.00;;;;;;5051335;28;20507;-65
2021/01/28 02:23:17;;;;;;;1.30;1.17;;;2.20;98.00;;;;;;5049187;28;20489;-65
2021/01/28 02:25:45;;;;;;;2.13;1.20;;;2.20;98.00;;;;;;5051175;28;20456;-65
2021/01/28 02:28:15;;;;;;;1.63;1.30;;;2.10;98.00;;;;;;5049385;28;20483;-65
2021/01/28 02:30:43;;;;;;;4.30;2.03;;;2.20;98.00;;;;;;5049850;28;20462;-66
2021/01/28 02:33:12;;;;;;;2.47;1.23;;;2.10;98.00;;;;;;5048683;28;20889;-64
2021/01/28 02:35:39;;;;;;;6.20;3.50;;;2.30;98.00;;;;;;5051169;28;20461;-65
2021/01/28 02:38:09;;;;;;;1.50;1.37;;;2.20;98.00;;;;;;5049078;28;20941;-65
2021/01/28 02:40:37;;;;;;;1.50;1.40;;;2.10;98.00;;;;;;5050964;28;20500;-65
2021/01/28 02:43:05;;;;;;;1.40;1.33;;;2.10;98.00;;;;;;5048922;28;20476;-64
2021/01/28 02:45:35;;;;;;;1.10;1.10;;;2.10;98.00;;;;;;5050978;28;20718;-65
2021/01/28 02:48:04;;;;;;;1.70;1.67;;;2.10;98.00;;;;;;5048837;28;20468;-64
2021/01/28 02:50:30;;;;;;;1.87;1.30;;;2.10;98.00;;;;;;5050895;28;20461;-64
2021/01/28 02:52:59;;;;;;;1.77;1.53;;;2.20;98.00;;;;;;5049191;28;20465;-65
2021/01/28 02:55:28;;;;;;;2.90;1.50;;;2.20;98.00;;;;;;5050641;28;20497;-65
2021/01/28 02:57:56;;;;;;;1.43;1.33;;;2.10;98.00;;;;;;5048765;28;20510;-65
2021/01/28 03:00:28;;;;;;;1.30;1.30;;;2.10;98.00;;;;;;5050635;28;20464;-65
2021/01/28 03:02:55;;;;;;;4.07;1.83;;;2.20;98.00;;;;;;5048385;28;20894;-65
2021/01/28 03:05:22;;;;;;;2.90;1.43;;;2.20;98.00;;;;;;5050521;28;20475;-65
2021/01/28 03:07:49;;;;;;;1.60;1.10;;;2.20;98.00;;;;;;5048772;28;20465;-65
2021/01/28 03:10:18;;;;;;;1.10;1.10;;;2.20;98.00;;;;;;5049459;28;20821;-66
2021/01/28 03:12:45;;;;;;;2.47;1.97;;;2.20;98.00;;;;;;5048797;28;20507;-66
2021/01/28 03:15:13;;;;;;;3.43;2.40;;;2.10;98.00;;;;;;5050397;28;20884;-64
2021/01/28 03:17:40;;;;;;;1.20;1.10;;;2.20;98.00;;;;;;5048510;28;20492;-64
2021/01/28 03:20:08;;;;;;;1.87;1.53;;;2.20;98.00;;;;;;5050441;28;20464;-65
2021/01/28 03:22:35;;;;;;;1.40;1.10;;;2.30;98.00;;;;;;5047334;28;20489;-66
2021/01/28 03:25:02;;;;;;;1.50;1.37;;;2.30;98.00;;;;;;5050408;28;20456;-65
2021/01/28 03:27:29;;;;;;;1.57;1.27;;;2.50;98.00;;;;;;5048182;28;20556;-66
2021/01/28 03:29:55;;;;;;;4.60;1.53;;;2.60;98.00;;;;;;5050463;28;20457;-65
2021/01/28 03:32:22;;;;;;;1.10;0.90;;;2.70;98.00;;;;;;5048296;28;20750;-65
2021/01/28 03:34:49;;;;;;;1.20;1.20;;;2.70;98.00;;;;;;5050511;28;20503;-65
2021/01/28 03:37:16;;;;;;;1.33;1.30;;;2.50;98.00;;;;;;5048477;28;20461;-66
2021/01/28 03:39:42;;;;;;;1.60;1.43;;;2.50;98.00;;;;;;5050618;28;20454;-65
2021/01/28 03:42:09;;;;;;;1.10;1.07;;;2.50;98.00;;;;;;5051563;28;20605;-64
2021/01/28 03:44:36;;;;;;;2.03;1.87;;;2.50;98.00;;;;;;5054904;28;20833;-65
2021/01/28 03:47:03;;;;;;;1.20;1.10;;;2.50;98.00;;;;;;5054136;28;20465;-66
2021/01/28 03:49:29;;;;;;;1.10;1.00;;;2.50;98.00;;;;;;5051989;28;20942;-64
2021/01/28 03:51:58;;;;;;;1.10;1.10;;;2.50;98.00;;;;;;5054567;28;20452;-65
2021/01/28 03:54:24;;;;;;;1.30;1.07;;;2.30;98.00;;;;;;5050943;28;20509;-64
2021/01/28 03:56:51;;;;;;;1.20;1.00;;;2.30;98.00;;;;;;5054271;28;20458;-64
2021/01/28 03:59:17;;;;;;;1.10;1.00;;;2.30;98.00;;;;;;5052231;28;20452;-65
2021/01/28 04:01:44;;;;;;;1.97;1.33;;;2.40;98.00;;;;;;5054185;28;20477;-64
2021/01/28 04:04:10;;;;;;;1.20;1.10;;;2.30;98.00;;;;;;5051966;28;20492;-65
2021/01/28 04:06:37;;;;;;;1.20;0.90;;;2.50;98.00;;;;;;5052888;28;20995;-65
2021/01/28 04:09:05;;;;;;;1.10;0.90;;;2.60;98.00;;;;;;5050697;28;20453;-65
2021/01/28 04:11:31;;;;;;;1.10;1.00;;;2.70;98.00;;;;;;5053969;28;20794;-65
2021/01/28 04:13:58;;;;;;;1.10;1.00;;;2.60;98.00;;;;;;5051884;28;20496;-64
2021/01/28 04:16:35;;;;;;;1.10;1.00;;;2.50;98.00;;;;;;5053886;28;20464;-64
2021/01/28 04:19:01;;;;;;;1.30;1.20;;;2.50;98.00;;;;;;5051798;28;20457;-65
2021/01/28 04:21:28;;;;;;;1.10;1.10;;;2.40;98.00;;;;;;5053711;28;20485;-64
2021/01/28 04:23:56;;;;;;;1.10;1.00;;;2.50;98.00;;;;;;5052775;28;20476;-65
2021/01/28 04:26:23;;;;;;;1.10;1.00;;;2.50;98.00;;;;;;5054210;28;20966;-64
2021/01/28 04:28:50;;;;;;;1.10;1.00;;;2.50;98.00;;;;;;5051473;28;20871;-65
2021/01/28 04:31:16;;;;;;;1.40;1.20;;;2.60;98.00;;;;;;5054165;28;20486;-63
2021/01/28 04:33:43;;;;;;;1.63;1.20;;;2.60;98.00;;;;;;5051265;28;20878;-65
2021/01/28 04:36:10;;;;;;;1.10;1.10;;;2.60;98.00;;;;;;5053511;28;20454;-65
2021/01/28 04:38:37;;;;;;;1.47;1.43;;;2.70;98.00;;;;;;5033658;28;20544;-66
2021/01/28 04:41:10;;;;;;;1.27;1.23;;;2.70;98.00;;;;;;5052172;28;20481;-65
2021/01/28 04:43:38;;;;;;;1.60;1.50;;;2.70;98.00;;;;;;5051385;28;20453;-64
2021/01/28 04:46:07;;;;;;;1.10;1.00;;;2.70;98.00;;;;;;5053231;28;20500;-64
2021/01/28 04:48:34;;;;;;;1.97;1.33;;;2.60;98.00;;;;;;5051152;28;20488;-64
2021/01/28 04:51:03;;;;;;;2.60;2.00;;;2.60;98.00;;;;;;5053114;28;20465;-64
2021/01/28 04:53:35;;;;;;;1.20;1.20;;;2.50;98.00;;;;;;5049845;28;20493;-64
2021/01/28 04:56:07;;;;;;;1.10;1.10;;;2.50;98.00;;;;;;5053201;28;20461;-66
2021/01/28 04:58:33;;;;;;;1.20;1.10;;;2.50;98.00;;;;;;5051075;28;20503;-66
2021/01/28 05:01:01;;;;;;;1.23;1.20;;;2.50;98.00;;;;;;5052885;28;20469;-65
2021/01/28 05:03:36;;;;;;;1.97;1.50;;;2.70;98.00;;;;;;5051297;28;20822;-64
2021/01/28 05:06:05;;;;;;;1.43;1.33;;;2.70;98.00;;;;;;5052939;28;20450;-65
2021/01/28 05:08:32;;;;;;;1.90;1.57;;;2.70;98.00;;;;;;5051271;28;20832;-64
2021/01/28 05:11:00;;;;;;;1.40;1.00;;;2.60;98.00;;;;;;5052899;28;20450;-66
2021/01/28 05:13:30;;;;;;;1.40;1.40;;;2.60;98.00;;;;;;5050773;28;20454;-66
2021/01/28 05:16:17;;;;;;;1.97;1.33;;;2.60;98.00;;;;;;5052888;28;20493;-65
2021/01/28 05:18:44;;;;;;;1.40;1.17;;;2.50;98.00;;;;;;5050772;28;20449;-65
2021/01/28 05:21:16;;;;;;;1.10;0.90;;;2.60;98.00;;;;;;5052832;28;20469;-65
2021/01/28 05:23:43;;;;;;;2.40;1.10;;;2.50;98.00;;;;;;5050869;28;20955;-67
2021/01/28 05:26:31;;;;;;;1.10;1.00;;;2.50;98.00;;;;;;5052787;28;20487;-64
2021/01/28 05:29:14;;;;;;;3.73;2.97;;;2.60;98.00;;;;;;5050513;28;20460;-65
2021/01/28 05:31:42;;;;;;;1.97;1.30;;;2.60;98.00;;;;;;5052083;28;20489;-64
2021/01/28 05:34:11;;;;;;;1.20;1.00;;;2.70;98.00;;;;;;5050328;28;20485;-65
2021/01/28 05:36:49;;;;;;;1.10;1.00;;;2.70;98.00;;;;;;5052435;28;20976;-64
2021/01/28 05:39:23;;;;;;;1.10;1.00;;;2.70;98.00;;;;;;5050211;28;20943;-65
2021/01/28 05:41:51;;;;;;;1.10;1.10;;;2.80;98.00;;;;;;5052216;28;21024;-64
2021/01/28 05:44:22;;;;;;;1.13;1.07;;;3.00;98.00;;;;;;5050035;28;20512;-65
2021/01/28 05:47:04;;;;;;;3.43;2.00;;;2.80;98.00;;;;;;5052183;28;20926;-64
2021/01/28 05:49:32;;;;;;;1.20;1.10;;;2.80;98.00;;;;;;5050137;28;20492;-65
2021/01/28 05:52:12;;;;;;;1.47;1.43;;;2.80;98.00;;;;;;5050759;28;20852;-66
2021/01/28 05:54:39;;;;;;;2.80;1.77;;;2.80;98.00;;;;;;5049670;28;20468;-66
2021/01/28 05:57:09;;;;;;;1.10;1.00;;;2.70;98.00;;;;;;5050379;28;20894;-64
2021/01/28 05:59:42;;;;;;;1.10;1.00;;;2.70;98.00;;;;;;5049942;28;20960;-66
2021/01/28 06:02:37;;;;;;;1.10;1.00;;;2.70;98.00;;;;;;5050508;28;21020;-65
2021/01/28 06:05:17;;;;;;;4.90;1.50;;;2.70;98.00;;;;;;5043672;28;20469;-64
2021/01/28 06:07:57;;;;;;;1.10;1.00;;;2.70;98.00;;;;;;5049551;28;20483;-65
2021/01/28 06:10:56;;;;;;;1.10;0.90;;;2.70;98.00;;;;;;5051690;28;20468;-65
2021/01/28 06:13:52;;;;;;;1.10;1.00;;;2.70;98.00;;;;;;5049338;28;20453;-67
2021/01/28 06:16:24;;;;;;;1.10;1.10;;;2.60;98.00;;;;;;5042912;28;20499;-64
2021/01/28 06:19:26;;;;;;;1.30;1.20;;;2.70;98.00;;;;;;5049536;28;20460;-66
2021/01/28 06:21:59;;;;;;;2.67;1.77;;;2.70;98.00;;;;;;5030219;28;20496;-64
2021/01/28 06:24:46;;;;;;;1.10;1.00;;;2.80;98.00;;;;;;5049371;28;20453;-64
2021/01/28 06:27:31;;;;;;;1.20;1.10;;;2.80;98.00;;;;;;5051346;28;20495;-66
2021/01/28 06:30:20;;;;;;;1.57;1.50;;;2.80;98.00;;;;;;5051293;28;20493;-66
2021/01/28 06:33:21;;;;;;;1.10;0.97;;;2.80;98.00;;;;;;5049255;28;20489;-66
2021/01/28 06:36:26;;;;;;;3.07;1.30;;;2.90;98.00;;;;;;5051234;28;20475;-65
2021/01/28 06:39:17;;;;;;;1.70;1.20;;;2.80;98.00;;;;;;5048765;28;20519;-66
2021/01/28 06:41:53;;;;;;;1.47;1.30;;;2.70;98.00;;;;;;5047874;28;20539;-64
2021/01/28 06:44:23;;;;;;;1.77;1.27;;;2.60;98.00;;;;;;5049112;28;20622;-66
2021/01/28 06:46:56;;;;;;;1.10;1.00;;;2.50;98.00;;;;;;5051246;28;20531;-64
2021/01/28 06:49:30;;;;;;;1.10;1.00;;;2.50;98.00;;;;;;5049090;28;20465;-66
2021/01/28 06:52:07;;;;;;;1.30;1.10;;;2.60;98.00;;;;;;5051082;28;20549;-66
2021/01/28 06:54:45;;;;;;;1.10;1.00;;;2.60;98.00;;;;;;5048883;28;20622;-65
2021/01/28 06:57:21;;;;;;;1.40;1.33;;;2.60;98.00;;;;;;5050837;28;20997;-64
2021/01/28 06:59:55;;;;;;;1.10;0.97;;;2.60;98.00;;;;;;5049281;28;20454;-65
2021/01/28 07:02:35;;;;;;;1.10;0.90;;;2.70;98.00;;;;;;5050831;28;20497;-65
2021/01/28 07:05:33;;;;;;;8.10;2.60;;;2.80;98.00;;;;;;5050657;28;20458;-64
2021/01/28 07:08:07;;;;;;;1.10;0.90;;;2.80;98.00;;;;;;5048825;28;20454;-64
2021/01/28 07:10:37;;;;;;;1.20;1.10;;;2.80;98.00;;;;;;5050625;28;20944;-64
2021/01/28 07:13:13;;;;;;;2.07;1.20;;;2.80;98.00;;;;;;5048467;28;20461;-64
2021/01/28 07:15:44;;;;;;;1.10;1.00;;;2.80;98.00;;;;;;5048290;28;20497;-66
2021/01/28 07:18:16;;;;;;;1.10;1.00;;;2.90;98.00;;;;;;5048408;28;20569;-67
2021/01/28 07:20:59;;;;;;;2.03;1.50;;;2.80;98.00;;;;;;5050391;28;20500;-64
2021/01/28 07:23:29;;;;;;;2.60;2.03;;;2.90;98.00;;;;;;5048217;28;20498;-65
2021/01/28 07:26:12;;;;;;;1.20;1.20;;;2.80;98.00;;;;;;5049218;28;20461;-64
2021/01/28 07:28:40;;;;;;;1.10;0.90;;;2.80;98.00;;;;;;5048456;28;20497;-66
2021/01/28 07:31:25;;;;;;;1.50;1.10;;;2.80;98.00;;;;;;5050250;28;20457;-65
2021/01/28 07:34:14;;;;;;;1.20;1.03;;;2.90;98.00;;;;;;5048436;28;20466;-64
2021/01/28 07:36:47;;;;;;;1.10;1.00;;;2.90;98.00;;;;;;5050277;28;20457;-64
2021/01/28 07:39:34;;;;;;;1.40;1.17;;;2.90;98.00;;;;;;5048372;28;20536;-63
2021/01/28 07:42:03;;;;;;;1.23;1.10;;;2.90;98.00;;;;;;5050046;28;20521;-66
2021/01/28 07:44:46;;;;;;;3.10;1.87;;;2.90;98.00;;;;;;5048078;28;20488;-64
2021/01/28 07:47:49;;;;;;;1.30;1.30;;;3.00;98.00;;;;;;5050254;28;20871;-64
2021/01/28 07:50:39;;;;;;;2.23;1.37;;;3.00;98.00;;;;;;5050352;28;20464;-63
2021/01/28 07:53:36;;;;;;;2.70;1.63;;;3.00;98.00;;;;;;5048132;28;20458;-64
2021/01/28 07:56:02;;;;;;;1.30;1.20;;;2.90;98.00;;;;;;5042366;28;20476;-63
2021/01/28 07:58:33;;;;;;;2.40;1.50;;;3.00;98.00;;;;;;5048230;28;20855;-63
2021/01/28 08:01:06;;;;;;;1.53;1.20;;;3.00;98.00;;;;;;5050165;28;21061;-64
2021/01/28 08:03:35;;;;;;;1.10;0.90;;;3.00;98.00;;;;;;5048078;28;21023;-65
2021/01/28 08:06:06;;;;;;;1.80;1.20;;;3.10;98.00;;;;;;5050056;28;20493;-65
2021/01/28 08:08:33;;;;;;;1.20;1.13;;;3.10;98.00;;;;;;5048394;28;20472;-64
2021/01/28 08:11:19;;;;;;;2.07;1.30;;;3.10;98.00;;;;;;5050105;28;20520;-63
2021/01/28 08:13:54;;;;;;;3.53;1.77;;;3.20;98.00;;;;;;5048036;28;20461;-64
2021/01/28 08:16:23;;;;;;;1.40;1.27;;;3.10;98.00;;;;;;5050359;28;20514;-64
2021/01/28 08:19:06;;;;;;;1.10;1.10;;;3.10;98.00;;;;;;5048083;28;20821;-65
2021/01/28 08:21:33;;;;;;;1.60;1.10;;;3.00;98.00;;;;;;5049939;28;20987;-64
2021/01/28 08:24:12;;;;;;;1.20;1.00;;;3.10;98.00;;;;;;5048120;28;20493;-65
2021/01/28 08:26:42;;;;;;;1.10;1.00;;;3.10;98.00;;;;;;5050543;28;20492;-64
2021/01/28 08:29:15;;;;;;;1.30;1.30;;;3.00;98.00;;;;;;5034146;28;20552;-64
2021/01/28 08:31:43;;;;;;;1.10;1.00;;;3.00;98.00;;;;;;5053520;28;20699;-64
2021/01/28 08:34:16;;;;;;;1.20;1.10;;;3.00;98.00;;;;;;5051591;28;20458;-64
2021/01/28 08:36:46;;;;;;;1.40;1.20;;;3.00;98.00;;;;;;5053286;28;20496;-64
2021/01/28 08:39:17;;;;;;;1.10;1.00;;;3.00;98.00;;;;;;5051089;28;20765;-63
2021/01/28 08:41:46;;;;;;;1.33;1.30;;;3.00;98.00;;;;;;5053180;28;20482;-64
2021/01/28 08:44:17;;;;;;;1.10;1.00;;;3.00;98.00;;;;;;5051407;28;20840;-64
2021/01/28 08:46:46;;;;;;;1.10;1.10;;;3.00;98.00;;;;;;5053345;28;20864;-66
2021/01/28 08:49:18;;;;;;;1.20;1.13;;;3.00;98.00;;;;;;5051223;28;20465;-64
2021/01/28 08:51:50;;;;;;;1.70;1.10;;;3.00;98.00;;;;;;5053230;28;20870;-64
2021/01/28 08:54:19;;;;;;;1.10;1.00;;;3.10;98.00;;;;;;5049683;28;20477;-63
2021/01/28 08:56:52;;;;;;;1.47;1.23;;;3.00;98.00;;;;;;5053045;28;20493;-65
2021/01/28 08:59:20;;;;;;;1.10;1.00;;;3.00;98.00;;;;;;5050982;28;20497;-66
2021/01/28 09:01:48;;;;;;;4.27;2.53;;;3.10;98.00;;;;;;5052968;28;20991;-65
2021/01/28 09:04:21;;;;;;;1.10;1.00;;;3.00;98.00;;;;;;5049482;28;20486;-64
2021/01/28 09:06:48;;;;;;;1.10;1.00;;;3.20;98.00;;;;;;5052460;28;20474;-65
2021/01/28 09:09:22;;;;;;;1.10;1.00;;;3.20;98.00;;;;;;5050257;28;20460;-65
2021/01/28 09:11:49;;;;;;;1.60;1.27;;;3.10;98.00;;;;;;5052178;28;20488;-65
2021/01/28 09:14:28;;;;;;;1.10;0.97;;;3.20;98.00;;;;;;5050277;28;20855;-67
2021/01/28 09:16:56;;;;;;;1.53;1.20;;;3.10;98.00;;;;;;5052296;28;20537;-64
2021/01/28 09:19:23;;;;;;;1.10;1.00;;;3.20;98.00;;;;;;5050214;28;20504;-64
2021/01/28 09:21:54;;;;;;;1.40;1.10;;;3.20;98.00;;;;;;5051955;28;20702;-65
2021/01/28 09:24:25;;;;;;;1.30;1.30;;;3.10;98.00;;;;;;5050118;28;20467;-65
2021/01/28 09:27:08;;;;;;;1.67;1.50;;;3.20;98.00;;;;;;5052119;28;20491;-64
2021/01/28 09:29:39;;;;;;;1.10;1.00;;;3.30;98.00;;;;;;5045760;28;20611;-66
2021/01/28 09:32:09;;;;;;;3.57;2.80;;;3.20;98.00;;;;;;5050847;28;20468;-65
2021/01/28 09:34:35;;;;;;;1.20;1.13;;;3.30;98.00;;;;;;5049940;28;20484;-65
2021/01/28 09:37:04;;;;;;;2.07;1.30;;;3.30;98.00;;;;;;5052059;28;20526;-65
2021/01/28 09:39:41;;;;;;;4.40;2.37;;;3.30;98.00;;;;;;5049124;28;20508;-63
2021/01/28 09:42:14;;;;;;;1.10;1.00;;;3.40;98.00;;;;;;5051791;28;20853;-64
2021/01/28 09:44:45;;;;;;;1.10;1.10;;;3.50;98.00;;;;;;5049903;28;20508;-65
2021/01/28 09:47:21;;;;;;;1.10;0.90;;;3.60;98.00;;;;;;5052012;28;20461;-64
2021/01/28 09:49:50;;;;;;;1.80;1.70;;;3.60;98.00;;;;;;5049903;28;20450;-64
2021/01/28 09:52:21;;;;;;;5.43;1.50;;;3.60;98.00;;;;;;5051593;28;20813;-64
2021/01/28 09:54:50;;;;;;;1.13;1.03;;;3.50;98.00;;;;;;5049628;28;20852;-63
2021/01/28 09:57:17;;;;;;;1.10;1.00;;;3.50;98.00;;;;;;5051528;28;20484;-64
2021/01/28 09:59:45;;;;;;;1.20;1.07;;;3.50;98.00;;;;;;5049632;28;20454;-64
2021/01/28 10:02:16;;;;;;;10.47;2.90;;;3.50;98.00;;;;;;5051200;28;20486;-64
2021/01/28 10:04:43;;;;;;;4.80;2.57;;;3.60;98.00;;;;;;5049345;28;20446;-64
2021/01/28 10:07:10;;;;;;;1.40;1.37;;;3.50;98.00;;;;;;5050082;28;20489;-64
2021/01/28 10:09:37;;;;;;;1.40;1.30;;;3.40;98.00;;;;;;5049530;28;20500;-65
2021/01/28 10:12:08;;;;;;;10.50;2.43;;;3.40;98.00;;;;;;5051699;28;20453;-64
2021/01/28 10:14:35;;;;;;;1.17;1.10;;;3.60;98.00;;;;;;5049625;28;20527;-65
2021/01/28 10:17:07;;;;;;;2.27;1.53;;;3.60;98.00;;;;;;5051319;28;21002;-66
2021/01/28 10:19:33;;;;;;;2.13;1.33;;;3.50;98.00;;;;;;5049215;28;20458;-67
2021/01/28 10:22:00;;;;;;;1.30;1.17;;;3.50;98.00;;;;;;5050842;28;20508;-65
2021/01/28 10:24:27;;;;;;;1.10;1.00;;;3.50;98.00;;;;;;5049287;28;20527;-65
2021/01/28 10:26:54;;;;;;;1.37;1.33;;;3.60;98.00;;;;;;5049701;28;20450;-66
2021/01/28 10:29:20;;;;;;;1.90;1.47;;;3.60;98.00;;;;;;5048996;28;20814;-66
2021/01/28 10:31:47;;;;;;;1.10;1.03;;;3.60;98.00;;;;;;5050739;28;20465;-66
2021/01/28 10:34:14;;;;;;;1.10;1.00;;;3.60;98.00;;;;;;5048996;28;20810;-65
2021/01/28 10:36:41;;;;;;;2.20;1.83;;;3.80;98.00;;;;;;5051220;28;20453;-64
2021/01/28 10:39:07;;;;;;;1.57;1.50;;;3.80;98.00;;;;;;5048293;28;20865;-64
2021/01/28 10:41:34;;;;;;;1.70;1.37;;;3.70;98.00;;;;;;5050773;28;20872;-65
2021/01/28 10:44:00;;;;;;;7.90;2.10;;;3.70;98.00;;;;;;5048283;28;20485;-64
2021/01/28 10:46:27;;;;;;;1.27;1.27;;;3.70;98.00;;;;;;5050738;28;20876;-66
2021/01/28 10:48:53;;;;;;;1.20;1.00;;;3.70;98.00;;;;;;5048442;28;20454;-64
2021/01/28 10:51:21;;;;;;;1.30;1.23;;;3.70;98.00;;;;;;5049726;28;20465;-65
2021/01/28 10:53:48;;;;;;;1.10;1.00;;;3.80;98.00;;;;;;5048145;28;20457;-66
2021/01/28 10:56:14;;;;;;;1.20;1.10;;;4.00;98.00;;;;;;5050445;28;20839;-65
2021/01/28 10:58:41;;;;;;;1.30;1.20;;;4.10;98.00;;;;;;5048634;28;20492;-66
2021/01/28 11:01:07;;;;;;;1.10;0.90;;;4.10;98.00;;;;;;5050452;28;20458;-65
2021/01/28 11:03:36;;;;;;;1.10;0.90;;;4.30;98.00;;;;;;5048491;28;20514;-63
2021/01/28 11:06:03;;;;;;;1.50;1.20;;;4.40;98.00;;;;;;5049754;28;20525;-65
2021/01/28 11:08:30;;;;;;;2.23;1.30;;;4.60;98.00;;;;;;5048723;28;20515;-64
2021/01/28 11:10:57;;;;;;;1.10;0.90;;;4.80;98.00;;;;;;5050458;28;20814;-64
2021/01/28 11:13:24;;;;;;;1.10;0.97;;;4.90;98.00;;;;;;5048274;28;20512;-65
2021/01/28 11:15:51;;;;;;;1.10;0.90;;;5.10;98.00;;;;;;5048887;28;20487;-64
2021/01/28 11:18:18;;;;;;;1.10;1.00;;;5.20;98.00;;;;;;5048338;28;20465;-63
2021/01/28 11:20:46;;;;;;;1.30;1.00;;;5.30;98.00;;;;;;5049095;28;20644;-64
2021/01/28 11:23:12;;;;;;;1.10;1.00;;;5.50;98.00;;;;;;5048206;28;21049;-64
2021/01/28 11:25:39;;;;;;;1.10;1.00;;;5.60;98.00;;;;;;5050097;28;20840;-65
2021/01/28 11:28:07;;;;;;;1.10;0.90;;;5.70;98.00;;;;;;5048047;28;20491;-64
2021/01/28 11:30:35;;;;;;;1.10;0.90;;;5.80;98.00;;;;;;5050041;28;20459;-65
2021/01/28 11:33:03;;;;;;;1.10;0.90;;;5.90;98.00;;;;;;5048010;28;20906;-65
2021/01/28 11:35:32;;;;;;;1.10;0.90;;;6.10;98.00;;;;;;5050053;28;20460;-64
2021/01/28 11:38:00;;;;;;;1.10;0.90;;;6.30;98.00;;;;;;5048402;28;20489;-64
2021/01/28 11:40:28;;;;;;;1.10;0.90;;;6.30;98.00;;;;;;5050062;28;20466;-64
2021/01/28 11:42:56;;;;;;;1.43;1.20;;;6.40;98.00;;;;;;5047651;28;20481;-64
2021/01/28 11:45:26;;;;;;;1.10;0.90;;;6.50;98.00;;;;;;5049984;28;20500;-65
2021/01/28 11:47:53;;;;;;;1.10;0.90;;;6.50;98.00;;;;;;5049204;28;20475;-65
2021/01/28 11:50:21;;;;;;;1.10;0.90;;;6.60;98.00;;;;;;5049141;28;20935;-64
2021/01/28 11:52:47;;;;;;;1.10;0.90;;;6.70;98.00;;;;;;5049549;28;20460;-64
2021/01/28 11:55:17;;;;;;;1.10;0.90;;;6.80;98.00;;;;;;5047828;28;20474;-64
2021/01/28 11:57:43;;;;;;;1.10;1.00;;;6.90;98.00;;;;;;5049904;28;20516;-66
2021/01/28 12:00:14;;;;;;;1.10;0.90;;;7.00;98.00;;;;;;5047938;28;20523;-64
2021/01/28 12:02:40;;;;;;;1.10;0.90;;;7.00;98.00;;;;;;5051735;28;20485;-65
2021/01/28 12:05:09;;;;;;;1.10;0.90;;;7.10;98.00;;;;;;5051566;28;20953;-65
2021/01/28 12:07:36;;;;;;;1.10;0.90;;;7.10;98.00;;;;;;5052730;28;20943;-65
2021/01/28 12:10:03;;;;;;;1.10;0.90;;;7.20;98.00;;;;;;5051612;28;20502;-65
2021/01/28 12:12:30;;;;;;;1.10;1.00;;;7.20;98.00;;;;;;5053747;28;20449;-64
2021/01/28 12:14:56;;;;;;;1.10;0.90;;;7.20;98.00;;;;;;5051698;28;20454;-65
2021/01/28 12:17:24;;;;;;;1.30;1.00;;;7.20;98.00;;;;;;5052369;28;20543;-65
2021/01/28 12:19:50;;;;;;;1.10;0.90;;;7.30;98.00;;;;;;5051481;28;20492;-66
2021/01/28 12:22:17;;;;;;;1.10;0.90;;;7.40;98.00;;;;;;5053133;28;20481;-66
2021/01/28 12:24:45;;;;;;;1.10;0.90;;;7.40;98.00;;;;;;5051388;28;20964;-64
2021/01/28 12:27:12;;;;;;;1.10;1.00;;;7.40;98.00;;;;;;5053258;28;20790;-65
2021/01/28 12:29:40;;;;;;;1.10;0.90;;;7.50;98.00;;;;;;5051313;28;20521;-66
2021/01/28 12:32:07;;;;;;;1.10;0.90;;;7.50;98.00;;;;;;5051260;28;20838;-66
2021/01/28 12:34:35;;;;;;;1.10;0.90;;;7.50;98.00;;;;;;5051296;28;20464;-65
2021/01/28 12:37:02;;;;;;;1.10;0.90;;;7.60;98.00;;;;;;5053110;28;20456;-66
2021/01/28 12:39:29;;;;;;;1.10;0.90;;;7.80;98.00;;;;;;5051059;28;20467;-65
2021/01/28 12:41:56;;;;;;;1.20;1.17;;;7.90;98.00;;;;;;5052830;28;20497;-65
2021/01/28 12:44:23;;;;;;;1.10;1.00;;;7.90;98.00;;;;;;5049970;28;20453;-66
2021/01/28 12:46:49;;;;;;;1.10;0.90;;;7.90;98.00;;;;;;5053120;28;20465;-66
2021/01/28 12:49:17;;;;;;;1.10;0.90;;;7.90;98.00;;;;;;5050867;28;20463;-65
2021/01/28 12:51:44;;;;;;;1.10;0.90;;;7.90;98.00;;;;;;5052501;28;20510;-66
2021/01/28 12:54:13;;;;;;;1.10;0.90;;;7.90;98.00;;;;;;5050408;28;20981;-65
2021/01/28 12:56:40;;;;;;;1.10;0.90;;;7.90;98.00;;;;;;5052756;28;20456;-65
2021/01/28 12:59:06;;;;;;;1.10;0.90;;;8.00;98.00;;;;;;5050635;28;20457;-65
2021/01/28 13:01:33;;;;;;;1.10;0.90;;;8.00;98.00;;;;;;5052443;28;20457;-64
2021/01/28 13:03:59;;;;;;;1.10;0.90;;;8.00;98.00;;;;;;5049955;28;20535;-64
2021/01/28 13:06:26;;;;;;;1.10;0.90;;;8.10;98.00;;;;;;5051131;28;20951;-65
2021/01/28 13:08:53;;;;;;;1.10;0.90;;;8.10;98.00;;;;;;5050375;28;20458;-65
2021/01/28 13:11:21;;;;;;;1.10;0.90;;;8.00;98.00;;;;;;5051001;28;20867;-65
2021/01/28 13:13:47;;;;;;;1.10;0.90;;;8.00;98.00;;;;;;5048006;28;20492;-66
2021/01/28 13:16:14;;;;;;;1.10;0.90;;;8.10;98.00;;;;;;5052318;28;20505;-66